Foster, Ohio
Current Conditions -  °F | °C
As of 8:53 AM on Thursday 18 Dec 2014 (Local Time) from KHAO Reporting Station
Overcast Overcast  
Wind Chill: 23°   Ceiling: 2600
Heat Index: 28°   Visibility: 10mi
Dew Point: 18°   Wind: 5mph
Humidity: 66%   Direction: 320°NW
Pressure: 30.31"   Gusts: NA
Location:  39.3164°N, 84.2265°W
Report Text: KHAO 181353Z AUTO 32004KT 10SM OVC026 M02/M08 A3031 RMK AO2 SLP273 T10221078
Loading
Personal Weather Stations






























Interactive Weather Map New forecast layout! Learn more

10-Day Weather Forecast

Advertisements
Track Severe Weather on mobile